Time;durP1;ratioP1;P1;durP2;ratioP2;P2;SDS_P1;SDS_P2;PMS_P1;PMS_P2;Temp;Humidity;BMP_temperature;BMP_pressure;BME280_temperature;BME280_humidity;BME280_pressure;Samples;Min_cycle;Max_cycle;Signal;HPM_P1;HPM_P2
2022/09/24 00:00:30;;;;;;;7.93;5.40;;;;;;;10.95;55.39;99739.00;5031905;28;20022;-67
2022/09/24 00:02:56;;;;;;;7.85;5.70;;;;;;;10.66;56.31;99748.91;5047173;28;20431;-67
2022/09/24 00:05:21;;;;;;;8.10;6.43;;;;;;;10.57;56.77;99734.09;5031728;28;20032;-67
2022/09/24 00:07:47;;;;;;;6.60;5.78;;;;;;;10.67;56.58;99736.56;5031299;28;20024;-67
2022/09/24 00:10:12;;;;;;;6.40;5.53;;;;;;;10.56;57.27;99738.88;5031402;28;20130;-67
2022/09/24 00:12:38;;;;;;;6.75;5.93;;;;;;;10.44;57.50;99739.50;5031925;28;20018;-67
2022/09/24 00:15:04;;;;;;;6.43;5.82;;;;;;;10.61;57.21;99735.06;5031628;28;20374;-67
2022/09/24 00:17:29;;;;;;;6.45;5.50;;;;;;;10.50;57.72;99738.22;5031324;28;20472;-67
2022/09/24 00:19:55;;;;;;;9.02;6.57;;;;;;;10.40;57.91;99733.72;5031495;28;20025;-67
2022/09/24 00:22:20;;;;;;;7.28;5.95;;;;;;;10.32;57.79;99733.69;5032155;28;20388;-67
2022/09/24 00:27:30;;;;;;;7.55;6.30;;;;;;;10.15;58.70;99740.91;5031333;28;20028;-67
2022/09/24 00:29:55;;;;;;;7.10;5.75;;;;;;;10.22;58.21;99737.66;5031548;28;20778;-67
2022/09/24 00:32:22;;;;;;;6.90;5.32;;;;;;;10.14;58.47;99730.06;5031641;28;20017;-67
2022/09/24 00:34:50;;;;;;;6.13;5.40;;;;;;;10.11;58.85;99737.09;5031575;28;20018;-67
2022/09/24 00:37:18;;;;;;;8.93;5.88;;;;;;;10.14;58.89;99730.91;5030502;28;20101;-67
2022/09/24 00:39:44;;;;;;;10.48;5.97;;;;;;;10.29;58.51;99726.78;5030009;28;20025;-67
2022/09/24 00:42:11;;;;;;;8.40;5.78;;;;;;;10.21;58.18;99727.63;5034341;28;20025;-67
2022/09/24 00:44:39;;;;;;;8.27;6.00;;;;;;;10.25;58.27;99723.81;5035310;28;20065;-67
2022/09/24 00:47:11;;;;;;;8.05;6.68;;;;;;;9.94;59.34;99724.75;5035112;28;20041;-66
2022/09/24 00:49:38;;;;;;;7.15;6.35;;;;;;;9.71;60.35;99723.19;5034896;28;20032;-67
2022/09/24 00:52:03;;;;;;;7.55;6.47;;;;;;;10.09;58.45;99728.22;5035316;28;20033;-67
2022/09/24 00:54:29;;;;;;;8.45;7.00;;;;;;;10.36;57.90;99723.50;5035130;28;20025;-68
2022/09/24 00:56:58;;;;;;;7.80;6.82;;;;;;;10.49;56.94;99719.75;5034642;28;20484;-67
2022/09/24 00:59:26;;;;;;;8.30;5.45;;;;;;;10.65;56.57;99730.47;5034801;28;20026;-67
2022/09/24 01:01:57;;;;;;;9.48;6.40;;;;;;;10.76;56.71;99723.41;5034868;28;20450;-67
2022/09/24 01:04:26;;;;;;;7.25;5.95;;;;;;;10.87;56.16;99725.84;5034927;28;20025;-67
2022/09/24 01:06:51;;;;;;;6.90;5.72;;;;;;;10.85;55.80;99722.53;5034946;28;20072;-67
2022/09/24 01:09:23;;;;;;;10.43;5.90;;;;;;;10.59;56.00;99727.00;5050103;28;20452;-67
2022/09/24 01:12:03;;;;;;;8.35;6.32;;;;;;;10.09;58.26;99731.88;5051526;28;20029;-67
2022/09/24 01:14:38;;;;;;;8.50;6.28;;;;;;;10.16;57.45;99730.53;5054416;28;20104;-67
2022/09/24 01:17:09;;;;;;;7.95;6.13;;;;;;;10.16;57.71;99731.38;5043237;28;20396;-67
2022/09/24 01:20:15;;;;;;;8.77;7.07;;;;;;;10.16;57.88;99733.34;5034383;28;20037;-67
2022/09/24 01:22:51;;;;;;;8.80;6.75;;;;;;;10.31;57.50;99729.25;5034948;28;20104;-67
2022/09/24 01:25:33;;;;;;;7.43;6.38;;;;;;;10.16;57.61;99734.19;5032390;28;20030;-67
2022/09/24 01:28:07;;;;;;;9.32;6.55;;;;;;;10.11;57.57;99737.94;5032976;28;20026;-67
2022/09/24 01:30:37;;;;;;;7.25;6.35;;;;;;;10.21;58.11;99736.81;5034242;28;20021;-67
2022/09/24 01:33:12;;;;;;;7.60;6.40;;;;;;;10.25;57.38;99734.19;5034648;28;20052;-67
2022/09/24 01:35:52;;;;;;;11.07;6.28;;;;;;;10.23;57.93;99737.31;5034402;28;20049;-67
2022/09/24 01:38:30;;;;;;;7.35;6.40;;;;;;;10.40;56.78;99741.28;5040810;28;20095;-66
2022/09/24 01:41:02;;;;;;;18.25;7.32;;;;;;;10.27;57.69;99742.25;5039251;28;20041;-67
2022/09/24 01:43:29;;;;;;;7.78;6.35;;;;;;;9.82;58.30;99736.53;5033685;28;20021;-67
2022/09/24 01:45:57;;;;;;;7.60;6.45;;;;;;;9.77;58.60;99747.88;5034276;28;20022;-67
2022/09/24 01:48:23;;;;;;;10.25;6.00;;;;;;;9.67;58.92;99742.56;5033675;28;20029;-66
2022/09/24 01:51:12;;;;;;;7.10;6.25;;;;;;;9.17;60.78;99740.81;5034210;28;20092;-67
2022/09/24 01:53:47;;;;;;;10.13;6.10;;;;;;;9.28;60.37;99742.22;5033247;28;20029;-67
2022/09/24 01:56:41;;;;;;;8.80;6.65;;;;;;;8.92;61.84;99740.34;5033498;28;20496;-67
2022/09/24 01:59:16;;;;;;;8.20;6.60;;;;;;;8.97;61.81;99737.44;5034804;28;20045;-67
2022/09/24 02:01:55;;;;;;;7.70;6.32;;;;;;;8.86;62.47;99742.44;5032582;28;20175;-68
2022/09/24 02:04:24;;;;;;;7.03;5.95;;;;;;;8.58;63.48;99750.91;5034069;28;20032;-67
2022/09/24 02:06:50;;;;;;;8.60;6.55;;;;;;;8.42;64.08;99753.19;5033694;28;20385;-67
2022/09/24 02:09:36;;;;;;;10.63;6.88;;;;;;;8.64;63.01;99751.63;5031973;28;20109;-68
2022/09/24 02:12:09;;;;;;;8.23;6.90;;;;;;;7.87;65.50;99752.16;5032866;28;20112;-68
2022/09/24 02:14:41;;;;;;;11.73;7.53;;;;;;;8.08;65.14;99763.69;5033659;28;20045;-68
2022/09/24 02:17:08;;;;;;;14.13;7.00;;;;;;;8.11;64.74;99751.91;5033450;28;20116;-68
2022/09/24 02:19:37;;;;;;;15.48;7.75;;;;;;;8.31;64.54;99760.13;5051222;28;20028;-69
2022/09/24 02:22:07;;;;;;;18.08;7.75;;;;;;;8.13;65.02;99751.59;5032038;28;20032;-68
2022/09/24 02:24:42;;;;;;;13.50;8.05;;;;;;;8.24;64.80;99764.19;5033341;28;20107;-68
2022/09/24 02:27:07;;;;;;;11.60;6.22;;;;;;;8.31;64.16;99757.34;5041453;28;20445;-68
2022/09/24 02:29:33;;;;;;;9.07;6.53;;;;;;;8.33;63.72;99764.25;5032289;28;20127;-68
2022/09/24 02:31:59;;;;;;;11.65;7.00;;;;;;;8.59;62.67;99765.69;5033153;28;20429;-68
2022/09/24 02:34:31;;;;;;;9.95;7.03;;;;;;;8.48;63.10;99763.09;5032063;28;20029;-68
2022/09/24 02:37:02;;;;;;;13.85;7.47;;;;;;;8.55;62.26;99763.50;5033184;28;20492;-67
2022/09/24 02:39:27;;;;;;;;;;;;;;;8.66;62.70;99766.91;5033207;28;20480;-68
2022/09/24 02:41:53;;;;;;;8.85;6.72;;;;;;;8.90;62.08;99764.94;5034528;28;19960;-68
2022/09/24 02:44:19;;;;;;;7.20;6.40;;;;;;;8.94;61.64;99765.97;5033204;28;20053;-68
2022/09/24 02:46:45;;;;;;;9.52;6.78;;;;;;;8.55;63.06;99760.72;5032816;28;20037;-68
2022/09/24 02:49:13;;;;;;;8.82;6.32;;;;;;;8.31;63.36;99763.75;5046526;28;20048;-68
2022/09/24 02:51:39;;;;;;;10.05;6.78;;;;;;;7.94;64.75;99771.22;5052771;28;20025;-68
2022/09/24 02:54:05;;;;;;;8.07;6.78;;;;;;;7.85;65.35;99771.13;5052801;28;20047;-68
2022/09/24 02:56:31;;;;;;;10.98;7.55;;;;;;;7.62;65.84;99772.97;5051634;28;20024;-67
2022/09/24 02:58:57;;;;;;;9.50;7.65;;;;;;;7.59;66.01;99778.00;5038853;28;20037;-68
2022/09/24 03:01:23;;;;;;;10.05;7.43;;;;;;;7.87;65.43;99791.94;5040634;28;20028;-67
2022/09/24 03:03:49;;;;;;;12.25;7.38;;;;;;;7.76;66.16;99790.50;5051774;28;20032;-68
2022/09/24 03:06:15;;;;;;;9.82;6.82;;;;;;;7.84;65.69;99791.75;5052271;28;20048;-68
2022/09/24 03:08:42;;;;;;;11.77;8.30;;;;;;;7.80;66.15;99790.72;5040906;28;20029;-68
2022/09/24 03:11:11;;;;;;;10.35;7.07;;;;;;;7.84;66.37;99798.16;5042744;28;20033;-68
2022/09/24 03:13:37;;;;;;;14.18;7.32;;;;;;;7.75;66.53;99797.19;5031048;28;20066;-68
2022/09/24 03:16:03;;;;;;;17.40;7.25;;;;;;;7.81;65.88;99797.94;5032350;28;20147;-67
2022/09/24 03:18:29;;;;;;;9.65;7.05;;;;;;;7.63;66.73;99794.94;5033501;28;20033;-67
2022/09/24 03:21:03;;;;;;;9.88;7.15;;;;;;;7.66;66.79;99799.88;5032542;28;20026;-67
2022/09/24 03:23:29;;;;;;;8.52;7.55;;;;;;;7.79;66.35;99805.78;5030800;28;20036;-68
2022/09/24 03:25:55;;;;;;;9.48;7.15;;;;;;;7.86;66.24;99803.41;5040367;28;20025;-68
2022/09/24 03:28:21;;;;;;;11.02;7.72;;;;;;;7.90;65.99;99814.75;5044815;28;20028;-68
2022/09/24 03:30:59;;;;;;;8.40;6.90;;;;;;;8.08;66.08;99810.22;5030628;28;20435;-67
2022/09/24 03:33:27;;;;;;;10.98;7.20;;;;;;;8.19;65.61;99814.44;5035787;28;20090;-68
2022/09/24 03:36:18;;;;;;;13.65;7.18;;;;;;;8.37;65.23;99814.63;5040387;28;20124;-69
2022/09/24 03:38:45;;;;;;;11.73;6.43;;;;;;;8.39;64.76;99813.19;5031355;28;20494;-68
2022/09/24 03:41:12;;;;;;;11.60;6.95;;;;;;;8.51;64.73;99818.25;5041276;28;20056;-68
2022/09/24 03:43:38;;;;;;;9.43;7.25;;;;;;;8.66;63.84;99821.84;5051788;28;20021;-67
2022/09/24 03:46:05;;;;;;;12.13;7.13;;;;;;;8.74;63.30;99823.06;5034415;28;20020;-67
2022/09/24 03:48:33;;;;;;;17.20;7.70;;;;;;;8.87;62.85;99830.56;5042862;28;20542;-67
2022/09/24 03:51:06;;;;;;;19.98;7.20;;;;;;;8.98;62.35;99825.56;5042779;28;20025;-67
2022/09/24 03:53:32;;;;;;;21.90;7.70;;;;;;;8.99;62.16;99830.84;5050329;28;20498;-69
2022/09/24 03:55:58;;;;;;;22.15;7.15;;;;;;;9.09;62.37;99835.34;5050274;28;20025;-68
2022/09/24 03:58:24;;;;;;;15.45;7.25;;;;;;;8.93;62.05;99840.47;5044575;28;20030;-68
2022/09/24 04:00:54;;;;;;;32.55;8.90;;;;;;;8.87;62.86;99843.69;5031880;28;20400;-66
2022/09/24 04:03:22;;;;;;;26.60;8.68;;;;;;;9.05;62.04;99853.88;5035943;28;20408;-69
2022/09/24 04:05:50;;;;;;;21.88;8.25;;;;;;;9.09;61.48;99856.84;5048908;28;20017;-69
2022/09/24 04:08:18;;;;;;;14.77;6.85;;;;;;;9.05;61.37;99845.50;5047382;28;20029;-68
2022/09/24 04:10:50;;;;;;;14.05;6.93;;;;;;;8.98;61.98;99850.69;5040062;28;20029;-68
2022/09/24 04:13:17;;;;;;;10.98;8.65;;;;;;;8.74;62.35;99851.78;5035732;28;20507;-70
2022/09/24 04:15:43;;;;;;;29.88;11.63;;;;;;;8.55;62.17;99855.50;5034699;28;20025;-68
2022/09/24 04:18:08;;;;;;;19.83;11.85;;;;;;;8.51;62.95;99864.84;5035562;28;20024;-68
2022/09/24 04:20:35;;;;;;;24.75;14.57;;;;;;;8.25;63.47;99863.38;5035524;28;20053;-68
2022/09/24 04:23:01;;;;;;;20.95;12.98;;;;;;;8.34;63.50;99862.66;5034422;28;20395;-67
2022/09/24 04:25:31;;;;;;;17.50;9.65;;;;;;;8.27;63.90;99868.66;5035570;28;20032;-68
2022/09/24 04:28:01;;;;;;;;;;;;;;;8.45;63.51;99878.03;5035673;28;20388;-67
2022/09/24 04:30:28;;;;;;;12.65;8.35;;;;;;;8.61;62.79;99869.38;5035206;28;19970;-68
2022/09/24 04:32:53;;;;;;;13.00;8.38;;;;;;;8.59;62.88;99864.09;5034933;28;20078;-68
2022/09/24 04:35:20;;;;;;;14.57;8.68;;;;;;;8.54;62.87;99867.81;5041676;28;20476;-68
2022/09/24 04:37:47;;;;;;;17.35;7.78;;;;;;;8.42;63.25;99864.69;5050189;28;20021;-68
2022/09/24 04:40:13;;;;;;;11.43;8.15;;;;;;;8.57;63.16;99864.41;5035366;28;20029;-68
2022/09/24 04:42:39;;;;;;;13.60;8.07;;;;;;;8.54;63.44;99859.44;5045943;28;20108;-68
2022/09/24 04:45:06;;;;;;;11.50;7.60;;;;;;;8.34;63.29;99871.03;5047728;28;20670;-68
2022/09/24 04:47:32;;;;;;;16.58;8.27;;;;;;;8.35;63.75;99869.88;5035802;28;20101;-68
2022/09/24 04:50:00;;;;;;;17.10;8.55;;;;;;;8.24;63.68;99869.25;5034600;28;20116;-68
2022/09/24 04:52:28;;;;;;;16.58;10.38;;;;;;;8.45;63.08;99872.47;5039470;28;20031;-68
2022/09/24 04:54:56;;;;;;;16.45;9.13;;;;;;;8.45;63.37;99872.47;5043152;28;20023;-68
2022/09/24 04:57:22;;;;;;;13.00;8.82;;;;;;;8.55;62.70;99866.66;5044776;28;20464;-68
2022/09/24 04:59:48;;;;;;;12.07;7.55;;;;;;;8.64;62.66;99877.94;5034368;28;20035;-68
2022/09/24 05:02:13;;;;;;;16.88;7.75;;;;;;;8.64;62.81;99869.56;5036131;28;20029;-69
2022/09/24 05:04:39;;;;;;;9.27;7.03;;;;;;;8.62;62.14;99876.59;5044907;28;20484;-68
2022/09/24 05:07:04;;;;;;;10.95;6.95;;;;;;;8.64;62.46;99886.31;5050841;28;20035;-67
2022/09/24 05:09:30;;;;;;;10.50;6.97;;;;;;;8.85;62.37;99880.25;5044046;28;20032;-68
2022/09/24 05:11:57;;;;;;;13.48;7.57;;;;;;;8.66;63.10;99886.81;5042548;28;20028;-68
2022/09/24 05:14:23;;;;;;;6.57;5.47;;;;;;;8.88;63.16;99879.66;5042287;28;20396;-68
2022/09/24 05:16:48;;;;;;;20.02;11.05;;;;;;;9.23;62.31;99884.69;5047750;28;20017;-68
2022/09/24 05:19:13;;;;;;;22.80;12.52;;;;;;;9.28;62.22;99892.94;5046733;28;20037;-68
2022/09/24 05:21:39;;;;;;;21.00;12.00;;;;;;;9.31;63.13;99888.69;5046251;28;20029;-67
2022/09/24 05:24:05;;;;;;;17.17;10.55;;;;;;;9.21;63.12;99890.59;5036754;28;20041;-69
2022/09/24 05:29:14;;;;;;;8.13;6.55;;;;;;;9.37;62.12;99882.66;5039061;28;20086;-69
2022/09/24 05:31:40;;;;;;;9.18;7.28;;;;;;;9.51;62.41;99881.78;5032329;28;20036;-69
2022/09/24 05:34:05;;;;;;;9.27;7.40;;;;;;;9.57;62.09;99885.28;5038798;28;20033;-69
2022/09/24 05:36:31;;;;;;;11.77;6.70;;;;;;;9.89;60.83;99872.16;5039257;28;20031;-68
2022/09/24 05:38:56;;;;;;;13.48;9.00;;;;;;;10.20;60.43;99869.34;5041813;28;20021;-70
2022/09/24 05:41:22;;;;;;;9.75;6.63;;;;;;;10.60;59.51;99873.28;5036606;28;20654;-69
2022/09/24 05:43:48;;;;;;;10.07;7.22;;;;;;;10.70;58.52;99877.75;5031032;28;20113;-69
2022/09/24 05:46:13;;;;;;;15.88;7.57;;;;;;;10.72;59.11;99881.06;5033812;28;20060;-68
2022/09/24 05:48:39;;;;;;;13.55;7.50;;;;;;;10.77;57.97;99883.69;5043218;28;20174;-70
2022/09/24 05:51:05;;;;;;;10.65;8.25;;;;;;;10.76;57.87;99894.06;5032419;28;20033;-69
2022/09/24 05:53:32;;;;;;;10.57;7.70;;;;;;;10.86;56.00;99887.31;5041249;28;20468;-69
2022/09/24 05:55:58;;;;;;;11.43;8.23;;;;;;;11.27;55.60;99889.97;5039075;28;20023;-69
2022/09/24 05:58:24;;;;;;;8.50;6.95;;;;;;;11.30;53.83;99884.56;5034740;28;20029;-69
2022/09/24 06:00:50;;;;;;;10.88;6.30;;;;;;;11.45;53.57;99891.63;5034652;28;20678;-69
2022/09/24 06:03:17;;;;;;;24.35;5.72;;;;;;;11.45;53.32;99896.41;5035739;28;20523;-69
2022/09/24 06:05:47;;;;;;;8.52;5.78;;;;;;;11.51;52.98;99895.09;5032222;28;20025;-68
2022/09/24 06:08:14;;;;;;;8.27;5.63;;;;;;;11.46;53.48;99893.28;5039517;28;20026;-67
2022/09/24 06:10:41;;;;;;;10.80;5.60;;;;;;;11.61;52.05;99894.75;5049285;28;20029;-69
2022/09/24 06:13:07;;;;;;;12.88;5.20;;;;;;;11.96;51.67;99907.06;5048066;28;20032;-68
2022/09/24 06:15:33;;;;;;;6.50;5.38;;;;;;;12.04;51.42;99895.84;5050239;28;20077;-67
2022/09/24 06:17:59;;;;;;;9.98;4.68;;;;;;;12.34;51.35;99895.06;5034994;28;20025;-68
2022/09/24 06:20:24;;;;;;;6.60;5.63;;;;;;;12.51;50.43;99896.97;5034167;28;20504;-69
2022/09/24 06:22:53;;;;;;;7.15;4.45;;;;;;;12.41;50.01;99892.53;5042716;28;20040;-72
2022/09/24 06:25:18;;;;;;;9.70;5.38;;;;;;;12.45;49.78;99896.34;5032105;28;20103;-69
2022/09/24 06:27:44;;;;;;;15.57;4.93;;;;;;;12.52;49.66;99897.78;5040399;28;20028;-68
2022/09/24 06:30:10;;;;;;;6.38;5.53;;;;;;;12.61;49.49;99904.19;5044672;28;20025;-67
2022/09/24 06:32:36;;;;;;;6.25;5.20;;;;;;;12.71;49.50;99892.56;5037965;28;20023;-68
2022/09/24 06:35:02;;;;;;;6.85;4.60;;;;;;;12.91;48.28;99895.72;5042381;28;20049;-68
2022/09/24 06:37:27;;;;;;;6.55;4.85;;;;;;;12.88;48.90;99900.06;5039812;28;20484;-68
2022/09/24 06:39:52;;;;;;;7.93;5.63;;;;;;;12.91;48.72;99902.19;5032862;28;20025;-70
2022/09/24 06:42:18;;;;;;;4.85;4.35;;;;;;;12.93;47.74;99901.84;5033399;28;20021;-68
2022/09/24 06:44:44;;;;;;;9.13;5.50;;;;;;;12.84;48.30;99901.09;5035896;28;20072;-68
2022/09/24 06:47:11;;;;;;;5.47;4.60;;;;;;;13.10;47.92;99894.47;5043218;28;20029;-71
2022/09/24 06:49:36;;;;;;;8.13;5.68;;;;;;;13.25;47.54;99899.44;5037484;28;20029;-68
2022/09/24 06:52:03;;;;;;;9.05;6.00;;;;;;;13.25;47.67;99895.84;5043269;28;20044;-69
2022/09/24 06:54:28;;;;;;;7.13;5.03;;;;;;;13.52;46.94;99900.09;5042953;28;20025;-68
2022/09/24 06:56:54;;;;;;;10.32;4.93;;;;;;;13.11;47.24;99893.28;5044111;28;20024;-67
2022/09/24 06:59:19;;;;;;;7.70;5.18;;;;;;;13.33;47.49;99886.50;5042106;28;20025;-69
2022/09/24 07:01:44;;;;;;;6.13;5.22;;;;;;;13.76;47.06;99899.38;5032389;28;20052;-67
2022/09/24 07:04:10;;;;;;;6.38;5.15;;;;;;;13.90;45.73;99895.41;5037260;28;20029;-69
2022/09/24 07:09:21;;;;;;;11.57;4.80;;;;;;;14.46;45.11;99896.91;5036948;28;20120;-68
2022/09/24 07:11:46;;;;;;;7.85;4.68;;;;;;;14.82;44.05;99892.47;5037684;28;20028;-67
2022/09/24 07:14:12;;;;;;;7.75;4.55;;;;;;;14.69;43.23;99894.44;5033437;28;20029;-69
2022/09/24 07:16:38;;;;;;;10.52;4.60;;;;;;;14.92;42.79;99893.97;5036241;28;20027;-68
2022/09/24 07:19:03;;;;;;;4.78;4.18;;;;;;;15.05;41.74;99893.97;5036727;28;20494;-68
2022/09/24 07:21:29;;;;;;;8.93;4.78;;;;;;;14.78;42.00;99885.09;5046087;28;20029;-67
2022/09/24 07:23:54;;;;;;;7.10;4.07;;;;;;;14.93;42.16;99892.00;5045455;28;20033;-68
2022/09/24 07:26:20;;;;;;;8.60;4.47;;;;;;;14.95;42.85;99896.09;5046314;28;20124;-67
2022/09/24 07:28:45;;;;;;;10.15;5.25;;;;;;;15.13;42.46;99885.38;5041565;28;20025;-68
2022/09/24 07:31:10;;;;;;;7.20;4.38;;;;;;;15.45;41.67;99879.06;5032848;28;20072;-68
2022/09/24 07:33:36;;;;;;;5.85;4.03;;;;;;;15.52;40.65;99884.09;5031929;28;20025;-68
2022/09/24 07:36:06;;;;;;;5.97;4.18;;;;;;;15.66;40.83;99878.03;5030801;28;20021;-68
2022/09/24 07:38:32;;;;;;;6.10;4.17;;;;;;;15.62;40.23;99877.13;5031712;28;20512;-68
2022/09/24 07:40:58;;;;;;;6.30;3.72;;;;;;;15.64;41.01;99880.38;5031880;28;20418;-68
2022/09/24 07:43:24;;;;;;;4.72;3.20;;;;;;;15.45;40.00;99876.25;5047919;28;20491;-68
2022/09/24 07:45:51;;;;;;;4.07;3.67;;;;;;;15.73;41.04;99878.22;5043522;28;20055;-68
2022/09/24 07:48:17;;;;;;;5.30;3.53;;;;;;;16.05;39.89;99875.50;5031535;28;20018;-67
2022/09/24 07:50:42;;;;;;;4.95;3.80;;;;;;;16.25;39.88;99869.94;5030528;28;20483;-68
2022/09/24 07:53:11;;;;;;;4.63;3.85;;;;;;;16.33;40.00;99871.78;5035212;28;20044;-68
2022/09/24 07:55:39;;;;;;;5.20;3.80;;;;;;;16.19;38.16;99877.06;5031338;28;20065;-68
2022/09/24 07:58:06;;;;;;;30.27;4.38;;;;;;;16.58;37.44;99876.38;5043431;28;20036;-68
2022/09/24 08:00:31;;;;;;;4.25;3.58;;;;;;;17.05;37.00;99869.03;5050479;28;20410;-68
2022/09/24 08:02:57;;;;;;;5.15;3.15;;;;;;;17.19;36.77;99866.53;5051480;28;20025;-68
2022/09/24 08:05:22;;;;;;;4.63;2.65;;;;;;;17.26;34.97;99861.03;5051180;28;20036;-68
2022/09/24 08:07:52;;;;;;;12.43;3.60;;;;;;;17.23;35.17;99867.41;5049034;28;20403;-68
2022/09/24 08:10:18;;;;;;;3.20;2.90;;;;;;;17.48;33.56;99860.66;5048696;28;20025;-68
2022/09/24 08:12:43;;;;;;;7.07;3.05;;;;;;;17.16;33.13;99855.97;5031131;28;20044;-68
2022/09/24 08:15:09;;;;;;;3.40;2.90;;;;;;;17.30;33.90;99857.47;5031292;28;20030;-68
2022/09/24 08:17:34;;;;;;;6.93;2.95;;;;;;;17.60;33.01;99852.00;5032625;28;20025;-68
2022/09/24 08:20:00;;;;;;;3.72;3.10;;;;;;;17.48;32.65;99855.81;5031624;28;20034;-68
2022/09/24 08:22:25;;;;;;;2.85;2.65;;;;;;;17.74;32.40;99845.81;5029446;28;20108;-69
2022/09/24 08:24:52;;;;;;;3.60;2.78;;;;;;;18.24;32.17;99842.28;5047685;28;20029;-69
2022/09/24 08:27:22;;;;;;;4.85;3.08;;;;;;;18.59;31.75;99835.56;5042871;28;20067;-69
2022/09/24 08:29:48;;;;;;;3.40;2.85;;;;;;;18.42;32.20;99844.59;5046270;28;20060;-68
2022/09/24 08:32:13;;;;;;;3.03;2.80;;;;;;;18.62;31.79;99839.63;5051011;28;20029;-69
2022/09/24 08:34:39;;;;;;;4.45;3.08;;;;;;;18.85;31.24;99845.25;5037148;28;20026;-68
2022/09/24 08:37:06;;;;;;;5.75;2.60;;;;;;;18.96;30.41;99834.06;5033920;28;20090;-68
2022/09/24 08:39:34;;;;;;;5.97;2.58;;;;;;;19.19;30.24;99831.19;5043498;28;20040;-69
2022/09/24 08:42:05;;;;;;;5.45;2.92;;;;;;;19.19;30.38;99830.34;5036329;28;20021;-69
2022/09/24 08:47:53;;;;;;;2.85;2.33;;;;;;;19.71;28.91;99829.72;5030490;28;20082;-75
2022/09/24 08:50:31;;;;;;;5.32;2.65;;;;;;;19.82;28.53;99827.81;5033023;28;20037;-74
2022/09/24 08:52:57;;;;;;;2.47;2.25;;;;;;;19.75;28.27;99820.03;5039188;28;20067;-73
2022/09/24 08:55:35;;;;;;;2.53;2.20;;;;;;;19.79;27.50;99820.09;5031975;28;20059;-71
2022/09/24 08:58:09;;;;;;;2.17;1.98;;;;;;;20.19;27.12;99818.44;5047443;28;20821;-74
2022/09/24 09:01:08;;;;;;;3.00;2.33;;;;;;;20.20;26.84;99808.72;5044913;28;20104;-72
2022/09/24 09:03:49;;;;;;;3.67;2.00;;;;;;;20.57;27.00;99815.50;5031693;28;20098;-73
2022/09/24 09:06:32;;;;;;;;;;;;;;;20.59;26.66;99807.41;5034378;28;20040;-73
2022/09/24 09:09:11;;;;;;;6.55;2.78;;;;;;;20.03;27.37;99815.91;5033948;28;19920;-77
2022/09/24 09:11:38;;;;;;;4.55;2.40;;;;;;;20.12;26.27;99809.06;5051037;28;20024;-73
2022/09/24 09:14:33;;;;;;;3.17;2.42;;;;;;;20.17;27.61;99809.50;5042629;28;20025;-73
2022/09/24 09:17:11;;;;;;;5.00;2.90;;;;;;;20.27;26.08;99805.16;5044712;28;20040;-74
2022/09/24 09:19:39;;;;;;;8.23;3.75;;;;;;;20.81;26.62;99807.56;5038902;28;20020;-73
2022/09/24 09:22:12;;;;;;;19.75;8.70;;;;;;;20.33;25.64;99805.56;5041134;28;20025;-74
2022/09/24 09:24:48;;;;;;;10.95;5.45;;;;;;;20.54;26.49;99801.28;5038895;28;20052;-74
2022/09/24 09:27:16;;;;;;;3.08;1.90;;;;;;;19.93;26.32;99793.91;5049230;28;20847;-72
2022/09/24 09:29:49;;;;;;;2.22;2.00;;;;;;;19.71;26.78;99798.50;5047880;28;20040;-73
2022/09/24 09:32:39;;;;;;;2.72;2.10;;;;;;;19.88;26.33;99789.38;5053809;28;20074;-73
2022/09/24 09:35:52;;;;;;;5.35;2.20;;;;;;;19.81;26.47;99789.28;5034729;28;20040;-73
2022/09/24 09:38:57;;;;;;;3.88;2.05;;;;;;;19.70;26.51;99792.03;5034452;28;20048;-73
2022/09/24 09:41:37;;;;;;;4.30;2.30;;;;;;;19.92;26.41;99783.72;5037468;28;20021;-72
2022/09/24 09:44:24;;;;;;;2.95;2.25;;;;;;;20.23;25.71;99784.41;5037379;28;20093;-73
2022/09/24 09:47:00;;;;;;;2.38;2.17;;;;;;;20.62;25.66;99774.53;5034737;28;20025;-73
2022/09/24 09:49:32;;;;;;;3.28;2.83;;;;;;;20.64;25.99;99774.16;5035272;28;20044;-73
2022/09/24 09:52:03;;;;;;;3.05;2.30;;;;;;;21.21;25.67;99769.97;5044704;28;20043;-74
2022/09/24 09:54:38;;;;;;;2.28;2.03;;;;;;;21.36;23.58;99780.19;5034793;28;20470;-73
2022/09/24 09:57:05;;;;;;;3.10;2.10;;;;;;;21.61;23.91;99762.38;5038535;28;20104;-73
2022/09/24 09:59:34;;;;;;;2.88;2.03;;;;;;;20.97;24.22;99758.09;5042869;28;20064;-73
2022/09/24 10:02:00;;;;;;;3.45;2.30;;;;;;;21.30;23.79;99767.56;5041305;28;20492;-73
2022/09/24 10:04:33;;;;;;;2.45;2.25;;;;;;;21.66;23.02;99752.59;5038213;28;20379;-73
2022/09/24 10:07:14;;;;;;;3.42;2.30;;;;;;;22.18;23.67;99760.00;5034177;28;20749;-73
2022/09/24 10:09:41;;;;;;;4.03;2.08;;;;;;;21.46;24.02;99759.47;5035219;28;20032;-73
2022/09/24 10:12:21;;;;;;;4.10;2.55;;;;;;;21.35;24.16;99758.63;5039974;28;20029;-73
2022/09/24 10:14:59;;;;;;;;;;;;;;;21.22;24.79;99755.34;5036081;28;20053;-72
2022/09/24 10:17:29;;;;;;;2.40;2.17;;;;;;;20.74;24.48;99757.16;5042069;28;19917;-74
2022/09/24 10:19:55;;;;;;;2.10;1.90;;;;;;;21.41;23.69;99764.75;5047324;28;20469;-73
2022/09/24 10:22:25;;;;;;;5.70;2.05;;;;;;;21.60;23.64;99755.84;5043214;28;20113;-73
2022/09/24 10:24:53;;;;;;;3.25;2.17;;;;;;;21.73;23.17;99744.94;5034654;28;20102;-73
2022/09/24 10:27:30;;;;;;;2.35;2.15;;;;;;;21.46;22.92;99744.44;5040430;28;20026;-72
2022/09/24 10:32:41;;;;;;;4.30;2.00;;;;;;;21.21;23.65;99750.88;5068365;28;20123;-73
2022/09/24 10:35:28;;;;;;;1.80;1.70;;;;;;;21.84;23.59;99741.25;5042618;28;20108;-73
2022/09/24 10:37:59;;;;;;;2.63;2.40;;;;;;;21.76;23.70;99746.13;5039593;28;20029;-73
2022/09/24 10:40:36;;;;;;;2.58;2.00;;;;;;;20.62;25.27;99738.41;5034181;28;20033;-73
2022/09/24 10:43:04;;;;;;;2.30;2.10;;;;;;;21.60;23.42;99737.97;5039483;28;20021;-72
2022/09/24 10:45:45;;;;;;;1.70;1.60;;;;;;;21.81;22.80;99730.69;5036551;28;20415;-72
2022/09/24 10:48:23;;;;;;;2.28;2.08;;;;;;;21.70;22.77;99733.53;5033275;28;20032;-72
2022/09/24 10:51:12;;;;;;;2.28;1.92;;;;;;;22.37;22.34;99727.41;5040264;28;20029;-74
2022/09/24 10:54:02;;;;;;;2.27;2.07;;;;;;;22.17;22.29;99730.69;5048398;28;20028;-73
2022/09/24 10:56:30;;;;;;;;;;;;;;;22.42;22.75;99724.13;5035038;28;20036;-74
2022/09/24 10:59:17;;;;;;;5.15;2.10;;;;;;;22.66;23.21;99713.09;5046985;28;20391;-72
2022/09/24 11:02:05;;;;;;;5.88;2.90;;;;;;;22.55;22.79;99705.38;5050939;28;20511;-73
2022/09/24 11:05:09;;;;;;;2.40;2.20;;;;;;;23.06;22.03;99712.94;5032113;28;20021;-75
2022/09/24 11:07:55;;;;;;;3.13;2.33;;;;;;;22.95;22.50;99698.75;5031351;28;20084;-73
2022/09/24 11:10:34;;;;;;;2.30;1.95;;;;;;;21.93;24.08;99709.56;5049889;28;20028;-78
2022/09/24 11:13:24;;;;;;;1.83;1.70;;;;;;;21.97;22.92;99698.97;5032444;28;20021;-77
2022/09/24 11:16:08;;;;;;;16.55;2.60;;;;;;;22.14;23.36;99701.00;5043748;28;20018;-75
2022/09/24 11:18:46;;;;;;;1.90;1.75;;;;;;;22.24;23.46;99690.81;5043138;28;20033;-75
2022/09/24 11:21:29;;;;;;;2.35;1.90;;;;;;;22.56;23.18;99684.25;5050350;28;20383;-74
2022/09/24 11:23:57;;;;;;;2.40;2.15;;;;;;;22.89;23.45;99688.97;5050211;28;20112;-72
2022/09/24 11:27:00;;;;;;;4.57;2.25;;;;;;;22.98;23.08;99675.88;5035554;28;20037;-70
2022/09/24 11:29:59;;;;;;;5.78;2.30;;;;;;;22.97;22.70;99673.47;5038646;28;20037;-70
2022/09/24 11:32:37;;;;;;;2.33;2.13;;;;;;;22.98;23.06;99664.47;5040098;28;20471;-70
2022/09/24 11:35:39;;;;;;;2.03;1.88;;;;;;;23.01;22.01;99662.84;5039632;28;20069;-70
2022/09/24 11:38:16;;;;;;;4.60;2.47;;;;;;;22.56;21.83;99647.19;5045050;28;20056;-70
2022/09/24 11:40:51;;;;;;;1.92;1.70;;;;;;;23.12;21.02;99645.69;5045376;28;20033;-70
2022/09/24 11:43:35;;;;;;;2.17;1.98;;;;;;;23.24;22.25;99647.22;5031289;28;20365;-70
2022/09/24 11:46:19;;;;;;;4.35;2.88;;;;;;;23.54;22.72;99654.38;5038421;28;20505;-70
2022/09/24 11:49:00;;;;;;;3.60;2.00;;;;;;;23.60;21.76;99657.59;5045494;28;20041;-73
2022/09/24 11:51:45;;;;;;;2.72;1.90;;;;;;;23.54;21.67;99657.25;5035562;28;20033;-73
2022/09/24 11:54:37;;;;;;;2.45;2.25;;;;;;;23.68;21.31;99662.00;5027224;28;20025;-72
2022/09/24 11:57:03;;;;;;;3.95;1.80;;;;;;;23.67;21.64;99661.22;5042025;28;20027;-71
2022/09/24 12:00:07;;;;;;;3.55;2.58;;;;;;;23.85;21.83;99668.78;5046797;28;20112;-72
2022/09/24 12:02:44;;;;;;;4.00;2.42;;;;;;;23.59;22.45;99659.63;5025484;28;20037;-71
2022/09/24 12:05:37;;;;;;;5.93;2.30;;;;;;;23.63;22.39;99663.25;5028756;28;20028;-69